createdAt,value
2018-09-11T00:02:18.988Z,62.60
2018-09-11T00:13:56.823Z,63.30
2018-09-11T00:19:27.239Z,64.00
2018-09-11T00:21:55.122Z,64.00
2018-09-11T00:27:50.433Z,64.80
2018-09-11T00:41:31.614Z,66.20
2018-09-11T00:50:17.465Z,68.00
2018-09-11T00:52:50.065Z,68.50
2018-09-11T00:58:32.532Z,69.70
2018-09-11T01:18:54.322Z,70.90
2018-09-11T01:24:29.414Z,71.40
2018-09-11T01:26:57.817Z,72.00
2018-09-11T01:35:31.168Z,71.50
2018-09-11T01:37:58.726Z,71.50
2018-09-11T01:43:32.144Z,72.00
2018-09-11T01:49:10.982Z,73.00
2018-09-11T01:51:38.644Z,73.50
2018-09-11T02:02:54.412Z,75.10
2018-09-11T02:05:21.979Z,76.10
2018-09-11T02:07:49.606Z,75.80
2018-09-11T02:19:26.520Z,77.20
2018-09-11T02:22:17.041Z,77.10
2018-09-11T02:27:49.149Z,77.60
2018-09-11T02:33:20.160Z,78.20
2018-09-11T02:36:10.550Z,78.00
2018-09-11T02:38:38.404Z,78.50
2018-09-11T02:41:06.376Z,78.50
2018-09-11T02:46:43.220Z,79.00
2018-09-11T02:49:27.072Z,78.80
2018-09-11T02:52:17.332Z,78.80
2018-09-11T02:57:54.489Z,79.10
2018-09-11T03:00:30.430Z,78.90
2018-09-11T03:08:54.627Z,79.40
2018-09-11T03:11:23.300Z,79.70
2018-09-11T03:13:52.090Z,79.60
2018-09-11T03:22:25.709Z,80.00
2018-09-11T03:30:59.338Z,80.30
2018-09-11T03:39:42.569Z,81.70
2018-09-11T03:45:12.781Z,81.80
2018-09-11T03:47:40.381Z,82.10
2018-09-11T03:50:07.987Z,82.00
2018-09-11T03:52:35.542Z,82.10
2018-09-11T03:55:03.411Z,81.90
2018-09-11T03:57:31.401Z,82.00
2018-09-11T03:59:58.986Z,82.20
2018-09-11T04:05:31.733Z,82.50
2018-09-11T04:08:01.957Z,82.20
2018-09-11T04:10:48.472Z,82.60
2018-09-11T04:13:16.562Z,82.70
2018-09-11T04:15:44.968Z,82.90
2018-09-11T04:18:30.978Z,82.80
2018-09-11T04:20:58.688Z,83.10
2018-09-11T04:23:26.720Z,83.10
2018-09-11T04:25:54.217Z,83.00
2018-09-11T04:28:21.766Z,83.10
2018-09-11T04:30:50.038Z,83.60
2018-09-11T04:33:17.817Z,83.90
2018-09-11T04:35:45.381Z,83.90
2018-09-11T04:38:12.887Z,84.10
2018-09-11T04:40:40.652Z,83.90
2018-09-11T04:55:25.104Z,84.10
2018-09-11T04:57:55.064Z,84.10
2018-09-11T05:00:24.973Z,84.40
2018-09-11T05:02:54.569Z,84.40
2018-09-11T05:05:54.532Z,84.10
2018-09-11T05:08:27.566Z,84.70
2018-09-11T05:10:55.124Z,84.40
2018-09-11T05:13:26.066Z,84.50
2018-09-11T05:15:53.815Z,85.30
2018-09-11T05:18:21.311Z,84.70
2018-09-11T05:20:49.212Z,84.50
2018-09-11T05:23:16.993Z,84.00
2018-09-11T05:25:46.126Z,83.60
2018-09-11T05:28:13.924Z,83.40
2018-09-11T05:30:41.819Z,83.30
2018-09-11T05:33:09.735Z,83.20
2018-09-11T05:35:37.417Z,83.30
2018-09-11T05:38:06.136Z,83.30
2018-09-11T05:40:41.486Z,83.30
2018-09-11T05:43:09.190Z,83.30
2018-09-11T05:45:36.726Z,83.30
2018-09-11T05:48:04.335Z,83.10
2018-09-11T05:50:33.359Z,82.90
2018-09-11T05:53:01.188Z,82.50
2018-09-11T05:55:34.039Z,82.00
2018-09-11T05:58:05.712Z,82.00
2018-09-11T06:00:33.245Z,81.60
2018-09-11T06:03:00.832Z,81.90
2018-09-11T06:05:28.512Z,81.50
2018-09-11T06:07:56.107Z,81.20
2018-09-11T06:10:23.717Z,81.10
2018-09-11T06:12:51.904Z,81.00
2018-09-11T06:15:19.357Z,81.60
2018-09-11T06:17:46.857Z,81.70
2018-09-11T06:20:14.490Z,81.60
2018-09-11T06:22:41.998Z,81.70
2018-09-11T06:25:09.549Z,81.70
2018-09-11T06:27:36.986Z,80.80
2018-09-11T06:30:04.657Z,80.10
2018-09-11T06:32:32.090Z,80.10
2018-09-11T06:34:59.659Z,80.10
2018-09-11T06:37:27.221Z,79.20
2018-09-11T06:39:54.709Z,79.40
2018-09-11T06:42:22.456Z,79.60
2018-09-11T06:44:49.943Z,80.00
2018-09-11T06:47:17.385Z,78.40
2018-09-11T06:49:44.896Z,78.30
2018-09-11T06:52:12.278Z,77.80
2018-09-11T06:54:39.802Z,77.80
2018-09-11T06:57:07.230Z,78.40
2018-09-11T06:59:34.749Z,79.10
2018-09-11T07:02:02.402Z,79.10
2018-09-11T07:04:30.047Z,79.50
2018-09-11T07:06:57.657Z,79.20
2018-09-11T07:09:25.254Z,79.30
2018-09-11T07:11:52.843Z,79.30
2018-09-11T07:14:20.500Z,78.50
2018-09-11T07:16:48.081Z,78.70
2018-09-11T07:19:15.646Z,78.00
2018-09-11T07:21:43.269Z,77.80
2018-09-11T07:34:15.660Z,77.00
2018-09-11T07:36:43.093Z,74.60
2018-09-11T07:39:10.566Z,74.80
2018-09-11T07:50:15.258Z,73.60
2018-09-11T07:52:51.963Z,73.30
2018-09-11T07:55:25.129Z,73.30
2018-09-11T07:58:01.952Z,72.50
2018-09-11T08:03:29.811Z,71.90
2018-09-11T08:05:57.489Z,71.80
2018-09-11T08:08:25.570Z,71.00
2018-09-11T08:10:53.432Z,68.30
2018-09-11T08:13:21.315Z,68.50
2018-09-11T08:15:50.483Z,68.00
2018-09-11T08:18:18.333Z,68.30
2018-09-11T08:20:45.947Z,67.00
2018-09-11T08:23:13.750Z,68.10
2018-09-11T08:25:41.838Z,68.50
2018-09-11T08:28:10.157Z,68.60
2018-09-11T08:30:38.079Z,68.50
2018-09-11T08:33:06.030Z,69.10
2018-09-11T08:35:33.946Z,66.50
2018-09-11T08:38:02.108Z,67.20
2018-09-11T08:40:30.412Z,65.90
2018-09-11T08:42:58.080Z,65.60
2018-09-11T08:45:25.447Z,65.30
2018-09-11T08:47:53.048Z,64.20
2018-09-11T08:50:20.916Z,65.20
2018-09-11T08:52:48.772Z,63.80
2018-09-11T08:55:17.308Z,64.10
2018-09-11T08:57:45.165Z,64.70
2018-09-11T09:00:12.897Z,64.70
2018-09-11T09:02:40.607Z,65.20
2018-09-11T09:05:08.170Z,62.20
2018-09-11T09:07:36.175Z,63.10
2018-09-11T09:10:05.283Z,60.50
2018-09-11T09:12:33.403Z,59.90
2018-09-11T09:42:16.769Z,50.20
2018-09-11T09:44:44.276Z,50.80
2018-09-11T09:47:11.730Z,50.80
2018-09-11T09:49:42.602Z,49.20
2018-09-11T09:52:11.678Z,49.00
2018-09-11T09:54:39.210Z,49.00
2018-09-11T09:57:13.353Z,48.70
2018-09-11T09:59:46.994Z,47.70
2018-09-11T10:02:25.092Z,48.80
2018-09-11T10:05:13.320Z,48.80
2018-09-11T10:20:01.593Z,46.10
2018-09-11T10:34:10.278Z,42.10
2018-09-11T10:56:57.736Z,40.10
2018-09-11T10:59:44.649Z,39.90
2018-09-11T11:02:12.143Z,40.10
2018-09-11T11:07:43.100Z,40.10
2018-09-11T11:25:12.751Z,38.40
2018-09-11T11:30:33.069Z,37.40
2018-09-11T11:34:51.779Z,38.10
2018-09-11T11:40:13.492Z,37.20
2018-09-11T11:47:43.636Z,36.90
2018-09-11T11:50:14.955Z,35.60
2018-09-11T11:52:42.418Z,38.20
2018-09-11T11:55:10.128Z,36.10
2018-09-11T11:57:37.440Z,36.20
2018-09-11T12:00:04.914Z,37.10
2018-09-11T12:02:46.027Z,37.90
2018-09-11T12:05:19.089Z,36.60
2018-09-11T12:07:46.610Z,37.60
2018-09-11T12:10:14.178Z,37.60
2018-09-11T12:12:55.905Z,38.20
2018-09-11T12:18:19.506Z,35.50
2018-09-11T12:29:35.952Z,34.20
2018-09-11T12:40:52.201Z,34.50
2018-09-11T12:43:25.134Z,33.90
2018-09-11T12:57:44.213Z,32.70
2018-09-11T13:00:24.693Z,33.80
2018-09-11T13:06:05.611Z,32.50
2018-09-11T13:17:29.941Z,32.00
2018-09-11T13:22:59.984Z,32.10
2018-09-11T13:28:40.003Z,31.20
2018-09-11T13:31:07.588Z,32.70
2018-09-11T13:33:42.247Z,31.70
2018-09-11T13:39:13.347Z,30.40
2018-09-11T13:41:40.884Z,30.10
2018-09-11T13:47:08.090Z,30.10
2018-09-11T13:49:36.015Z,29.30
2018-09-11T13:55:09.463Z,30.50
2018-09-11T13:57:37.544Z,30.00
2018-09-11T14:06:00.319Z,29.70
2018-09-11T14:08:28.548Z,30.00
2018-09-11T14:10:56.083Z,29.70
2018-09-11T14:22:33.547Z,28.50
2018-09-11T14:28:13.821Z,28.70
2018-09-11T14:33:44.344Z,28.70
2018-09-11T14:36:12.651Z,28.60
2018-09-11T14:41:43.892Z,28.60
2018-09-11T14:45:03.732Z,27.60
2018-09-11T14:47:37.294Z,27.90
2018-09-11T14:50:05.763Z,27.90
2018-09-11T14:52:33.753Z,27.40
2018-09-11T14:55:02.618Z,27.30
2018-09-11T14:57:44.006Z,27.80
2018-09-11T15:00:12.051Z,28.30
2018-09-11T15:02:40.240Z,27.90
2018-09-11T15:05:17.334Z,27.90
2018-09-11T15:07:52.844Z,27.90
2018-09-11T15:10:21.317Z,28.30
2018-09-11T15:12:49.089Z,28.40
2018-09-11T15:15:17.747Z,27.90
2018-09-11T15:20:47.199Z,27.90
2018-09-11T15:23:14.795Z,27.30
2018-09-11T15:25:46.921Z,28.40
2018-09-11T15:28:14.665Z,28.70
2018-09-11T15:30:42.157Z,29.70
2018-09-11T15:33:10.133Z,28.20
2018-09-11T15:38:30.486Z,28.00
2018-09-11T15:40:57.932Z,28.20
2018-09-11T15:43:25.460Z,28.00
2018-09-11T15:45:53.791Z,27.90
2018-09-11T15:48:26.462Z,28.60
2018-09-11T15:50:54.308Z,28.50
2018-09-11T15:53:21.844Z,28.90
2018-09-11T15:55:55.314Z,28.60
2018-09-11T15:58:24.064Z,29.30
2018-09-11T16:00:52.271Z,29.10
2018-09-11T16:03:19.986Z,28.90
2018-09-11T16:05:47.944Z,29.60
2018-09-11T16:08:16.440Z,29.10
2018-09-11T16:10:44.037Z,29.60
2018-09-11T16:13:11.430Z,29.60
2018-09-11T16:15:38.870Z,29.30
2018-09-11T16:18:06.370Z,29.80
2018-09-11T16:20:33.848Z,29.40
2018-09-11T16:23:01.321Z,29.40
2018-09-11T16:25:28.824Z,30.00
2018-09-11T16:27:56.446Z,30.00
2018-09-11T16:30:23.999Z,30.10
2018-09-11T16:32:51.797Z,30.60
2018-09-11T16:35:19.588Z,30.70
2018-09-11T16:37:47.671Z,30.80
2018-09-11T16:40:15.198Z,31.10
2018-09-11T16:42:42.732Z,31.70
2018-09-11T16:45:35.157Z,32.00
2018-09-11T16:48:03.467Z,32.40
2018-09-11T16:50:31.073Z,32.70
2018-09-11T16:52:58.590Z,33.90
2018-09-11T16:55:26.041Z,34.30
2018-09-11T16:57:54.880Z,34.50
2018-09-11T17:00:35.520Z,34.50
2018-09-11T17:03:07.102Z,34.50
2018-09-11T17:05:34.582Z,34.50
2018-09-11T17:08:05.136Z,34.60
2018-09-11T17:10:37.589Z,34.50
2018-09-11T17:13:05.548Z,34.60
2018-09-11T17:15:33.032Z,35.30
2018-09-11T17:18:00.669Z,35.80
2018-09-11T17:20:28.078Z,36.50
2018-09-11T17:22:55.739Z,36.30
2018-09-11T17:25:25.423Z,36.10
2018-09-11T17:28:07.884Z,36.90
2018-09-11T17:30:42.776Z,37.40
2018-09-11T17:33:11.797Z,38.60
2018-09-11T17:35:40.129Z,39.00
2018-09-11T17:38:07.817Z,38.20
2018-09-11T17:40:35.600Z,39.10
2018-09-11T17:43:13.317Z,39.00
2018-09-11T17:45:40.961Z,38.90
2018-09-11T17:48:09.100Z,39.40
2018-09-11T17:50:37.301Z,39.90
2018-09-11T17:53:08.084Z,40.20
2018-09-11T17:58:23.791Z,41.50
2018-09-11T18:00:51.366Z,41.50
2018-09-11T18:03:22.066Z,42.40
2018-09-11T18:08:34.296Z,43.40
2018-09-11T18:16:57.892Z,44.90
2018-09-11T18:19:25.425Z,45.40
2018-09-11T18:43:12.536Z,47.10
2018-09-11T18:45:40.386Z,47.40
2018-09-11T18:51:08.092Z,48.10
2018-09-11T18:53:35.786Z,46.90
2018-09-11T18:56:26.528Z,47.20
2018-09-11T18:59:00.144Z,47.20
2018-09-11T19:01:27.718Z,47.90
2018-09-11T19:13:10.029Z,48.20
2018-09-11T19:16:00.494Z,48.60
2018-09-11T19:18:58.750Z,48.10
2018-09-11T19:27:21.523Z,48.60
2018-09-11T19:32:52.416Z,49.00
2018-09-11T19:35:20.596Z,48.80
2018-09-11T19:37:48.232Z,48.90
2018-09-11T19:43:01.970Z,50.30
2018-09-11T19:48:15.382Z,49.90
2018-09-11T19:54:05.463Z,50.00
2018-09-11T19:59:25.889Z,51.00
2018-09-11T20:01:53.548Z,51.10
2018-09-11T20:04:21.772Z,51.10
2018-09-11T20:07:03.397Z,51.50
2018-09-11T20:09:34.684Z,52.40
2018-09-11T20:12:02.166Z,53.10
2018-09-11T20:17:26.058Z,53.20
2018-09-11T20:20:05.606Z,52.70
2018-09-11T20:22:33.698Z,53.50
2018-09-11T20:28:06.036Z,54.60
2018-09-11T20:30:33.479Z,55.20
2018-09-11T20:33:01.394Z,55.50
2018-09-11T20:35:30.974Z,55.10
2018-09-11T20:37:58.560Z,55.50
2018-09-11T20:40:26.162Z,55.70
2018-09-11T20:42:53.993Z,56.00
2018-09-11T20:45:21.776Z,55.90
2018-09-11T20:47:49.309Z,57.10
2018-09-11T20:50:17.184Z,58.40
2018-09-11T20:52:44.716Z,58.10
2018-09-11T20:55:12.147Z,58.10
2018-09-11T20:57:40.699Z,60.60
2018-09-11T21:00:15.800Z,61.20
2018-09-11T21:05:46.952Z,62.30
2018-09-11T21:14:18.068Z,62.20
2018-09-11T21:16:45.695Z,61.80
2018-09-11T21:19:13.194Z,62.00
2018-09-11T21:21:51.888Z,62.20
2018-09-11T21:24:19.827Z,62.90
2018-09-11T21:32:33.272Z,62.60
2018-09-11T21:35:07.475Z,63.60
2018-09-11T21:37:42.285Z,64.30
2018-09-11T21:46:15.269Z,64.10
2018-09-11T21:48:48.294Z,63.70
2018-09-11T21:51:16.278Z,63.90
2018-09-11T21:59:54.720Z,65.10
2018-09-11T22:05:39.890Z,64.80
2018-09-11T22:14:23.250Z,65.70
2018-09-11T22:16:55.286Z,66.20
2018-09-11T22:19:22.830Z,66.20
2018-09-11T22:21:56.066Z,65.80
2018-09-11T22:24:34.041Z,66.20
2018-09-11T22:30:04.856Z,67.00
2018-09-11T22:35:36.771Z,68.10
2018-09-11T22:38:07.508Z,67.60
2018-09-11T22:40:36.307Z,68.00
2018-09-11T22:43:04.000Z,67.80
